sensor_id;sensor_type;location;lat;lon;timestamp;P1;durP1;ratioP1;P2;durP2;ratioP2
50319;SDS011;36226;53.464;9.852;2023-05-10T00:02:16;5.25;;;1.80;;
50319;SDS011;36226;53.464;9.852;2023-05-10T00:04:41;2.95;;;1.92;;
50319;SDS011;36226;53.464;9.852;2023-05-10T00:07:07;1.95;;;1.55;;
50319;SDS011;36226;53.464;9.852;2023-05-10T00:09:32;4.00;;;2.58;;
50319;SDS011;36226;53.464;9.852;2023-05-10T00:12:00;3.55;;;2.10;;
50319;SDS011;36226;53.464;9.852;2023-05-10T00:14:25;3.67;;;2.25;;
50319;SDS011;36226;53.464;9.852;2023-05-10T00:16:51;6.65;;;2.40;;
50319;SDS011;36226;53.464;9.852;2023-05-10T00:19:16;3.47;;;2.10;;
50319;SDS011;36226;53.464;9.852;2023-05-10T00:21:41;7.40;;;2.20;;
50319;SDS011;36226;53.464;9.852;2023-05-10T00:24:07;3.13;;;2.20;;
50319;SDS011;36226;53.464;9.852;2023-05-10T00:26:32;4.03;;;1.90;;
50319;SDS011;36226;53.464;9.852;2023-05-10T00:29:00;4.25;;;2.17;;
50319;SDS011;36226;53.464;9.852;2023-05-10T00:31:26;2.60;;;2.05;;
50319;SDS011;36226;53.464;9.852;2023-05-10T00:33:51;5.35;;;2.45;;
50319;SDS011;36226;53.464;9.852;2023-05-10T00:36:16;5.72;;;2.30;;
50319;SDS011;36226;53.464;9.852;2023-05-10T00:38:42;2.83;;;2.13;;
50319;SDS011;36226;53.464;9.852;2023-05-10T00:41:07;3.00;;;2.30;;
50319;SDS011;36226;53.464;9.852;2023-05-10T00:43:33;4.25;;;2.53;;
50319;SDS011;36226;53.464;9.852;2023-05-10T00:45:58;4.32;;;2.33;;
50319;SDS011;36226;53.464;9.852;2023-05-10T00:48:24;4.07;;;2.53;;
50319;SDS011;36226;53.464;9.852;2023-05-10T00:50:49;4.50;;;2.40;;
50319;SDS011;36226;53.464;9.852;2023-05-10T00:53:15;4.25;;;2.40;;
50319;SDS011;36226;53.464;9.852;2023-05-10T00:55:43;4.20;;;2.42;;
50319;SDS011;36226;53.464;9.852;2023-05-10T00:58:09;3.40;;;2.40;;
50319;SDS011;36226;53.464;9.852;2023-05-10T01:00:34;2.70;;;2.28;;
50319;SDS011;36226;53.464;9.852;2023-05-10T01:03:00;4.28;;;2.58;;
50319;SDS011;36226;53.464;9.852;2023-05-10T01:05:26;4.57;;;2.20;;
50319;SDS011;36226;53.464;9.852;2023-05-10T01:07:52;6.28;;;2.60;;
50319;SDS011;36226;53.464;9.852;2023-05-10T01:10:18;4.43;;;2.53;;
50319;SDS011;36226;53.464;9.852;2023-05-10T01:12:44;4.38;;;2.75;;
50319;SDS011;36226;53.464;9.852;2023-05-10T01:15:10;5.88;;;3.05;;
50319;SDS011;36226;53.464;9.852;2023-05-10T01:17:36;4.53;;;2.55;;
50319;SDS011;36226;53.464;9.852;2023-05-10T01:20:03;4.30;;;2.88;;
50319;SDS011;36226;53.464;9.852;2023-05-10T01:22:42;3.65;;;2.50;;
50319;SDS011;36226;53.464;9.852;2023-05-10T01:25:49;5.80;;;2.50;;
50319;SDS011;36226;53.464;9.852;2023-05-10T01:34:06;4.38;;;2.47;;
50319;SDS011;36226;53.464;9.852;2023-05-10T01:39:24;4.35;;;2.88;;
50319;SDS011;36226;53.464;9.852;2023-05-10T01:41:56;4.32;;;2.78;;
50319;SDS011;36226;53.464;9.852;2023-05-10T01:47:25;4.30;;;2.70;;
50319;SDS011;36226;53.464;9.852;2023-05-10T01:49:56;3.58;;;2.38;;
50319;SDS011;36226;53.464;9.852;2023-05-10T01:52:30;2.90;;;2.30;;
50319;SDS011;36226;53.464;9.852;2023-05-10T01:55:02;3.55;;;2.83;;
50319;SDS011;36226;53.464;9.852;2023-05-10T01:57:34;4.43;;;2.28;;
50319;SDS011;36226;53.464;9.852;2023-05-10T02:00:01;3.80;;;2.70;;
50319;SDS011;36226;53.464;9.852;2023-05-10T02:02:28;5.28;;;2.83;;
50319;SDS011;36226;53.464;9.852;2023-05-10T02:04:55;5.10;;;2.60;;
50319;SDS011;36226;53.464;9.852;2023-05-10T02:07:22;4.03;;;2.97;;
50319;SDS011;36226;53.464;9.852;2023-05-10T02:09:48;4.18;;;2.75;;
50319;SDS011;36226;53.464;9.852;2023-05-10T02:12:13;3.67;;;2.80;;
50319;SDS011;36226;53.464;9.852;2023-05-10T02:14:40;5.80;;;2.70;;
50319;SDS011;36226;53.464;9.852;2023-05-10T02:17:06;3.65;;;2.60;;
50319;SDS011;36226;53.464;9.852;2023-05-10T02:19:32;5.85;;;3.00;;
50319;SDS011;36226;53.464;9.852;2023-05-10T02:21:59;4.40;;;2.47;;
50319;SDS011;36226;53.464;9.852;2023-05-10T02:24:25;4.05;;;3.00;;
50319;SDS011;36226;53.464;9.852;2023-05-10T02:26:53;3.13;;;2.58;;
50319;SDS011;36226;53.464;9.852;2023-05-10T02:29:18;4.88;;;2.95;;
50319;SDS011;36226;53.464;9.852;2023-05-10T02:31:44;4.28;;;3.15;;
50319;SDS011;36226;53.464;9.852;2023-05-10T02:34:10;6.18;;;3.05;;
50319;SDS011;36226;53.464;9.852;2023-05-10T02:36:36;4.40;;;2.47;;
50319;SDS011;36226;53.464;9.852;2023-05-10T02:39:03;7.30;;;3.08;;
50319;SDS011;36226;53.464;9.852;2023-05-10T02:41:30;3.80;;;2.65;;
50319;SDS011;36226;53.464;9.852;2023-05-10T02:43:57;3.33;;;2.92;;
50319;SDS011;36226;53.464;9.852;2023-05-10T02:46:25;6.82;;;3.05;;
50319;SDS011;36226;53.464;9.852;2023-05-10T02:48:50;5.10;;;3.30;;
50319;SDS011;36226;53.464;9.852;2023-05-10T02:51:16;4.72;;;2.90;;
50319;SDS011;36226;53.464;9.852;2023-05-10T02:53:44;4.75;;;3.33;;
50319;SDS011;36226;53.464;9.852;2023-05-10T02:56:15;6.45;;;3.10;;
50319;SDS011;36226;53.464;9.852;2023-05-10T02:58:45;5.03;;;3.05;;
50319;SDS011;36226;53.464;9.852;2023-05-10T03:01:11;5.00;;;3.22;;
50319;SDS011;36226;53.464;9.852;2023-05-10T03:03:36;6.45;;;2.97;;
50319;SDS011;36226;53.464;9.852;2023-05-10T03:06:02;7.38;;;3.00;;
50319;SDS011;36226;53.464;9.852;2023-05-10T03:08:27;4.57;;;2.90;;
50319;SDS011;36226;53.464;9.852;2023-05-10T03:10:56;4.47;;;2.80;;
50319;SDS011;36226;53.464;9.852;2023-05-10T03:13:35;5.00;;;2.95;;
50319;SDS011;36226;53.464;9.852;2023-05-10T03:21:08;5.30;;;2.90;;
50319;SDS011;36226;53.464;9.852;2023-05-10T03:23:41;5.10;;;3.08;;
50319;SDS011;36226;53.464;9.852;2023-05-10T03:26:09;7.75;;;3.35;;
50319;SDS011;36226;53.464;9.852;2023-05-10T03:28:35;6.70;;;3.33;;
50319;SDS011;36226;53.464;9.852;2023-05-10T03:31:01;9.00;;;3.50;;
50319;SDS011;36226;53.464;9.852;2023-05-10T03:33:28;5.00;;;3.38;;
50319;SDS011;36226;53.464;9.852;2023-05-10T03:35:53;6.00;;;3.15;;
50319;SDS011;36226;53.464;9.852;2023-05-10T03:38:19;4.57;;;3.42;;
50319;SDS011;36226;53.464;9.852;2023-05-10T03:40:44;5.70;;;3.22;;
50319;SDS011;36226;53.464;9.852;2023-05-10T03:43:10;5.38;;;2.83;;
50319;SDS011;36226;53.464;9.852;2023-05-10T03:45:35;7.07;;;3.15;;
50319;SDS011;36226;53.464;9.852;2023-05-10T03:48:01;5.18;;;3.40;;
50319;SDS011;36226;53.464;9.852;2023-05-10T03:50:26;7.47;;;3.30;;
50319;SDS011;36226;53.464;9.852;2023-05-10T03:52:52;3.78;;;3.05;;
50319;SDS011;36226;53.464;9.852;2023-05-10T03:55:17;6.63;;;3.30;;
50319;SDS011;36226;53.464;9.852;2023-05-10T03:57:43;3.92;;;2.70;;
50319;SDS011;36226;53.464;9.852;2023-05-10T04:00:08;5.57;;;3.47;;
50319;SDS011;36226;53.464;9.852;2023-05-10T04:02:34;5.28;;;3.10;;
50319;SDS011;36226;53.464;9.852;2023-05-10T04:05:00;7.32;;;3.45;;
50319;SDS011;36226;53.464;9.852;2023-05-10T04:07:25;6.78;;;3.47;;
50319;SDS011;36226;53.464;9.852;2023-05-10T04:09:50;5.53;;;3.50;;
50319;SDS011;36226;53.464;9.852;2023-05-10T04:12:18;5.38;;;3.10;;
50319;SDS011;36226;53.464;9.852;2023-05-10T04:14:44;5.47;;;3.20;;
50319;SDS011;36226;53.464;9.852;2023-05-10T04:17:09;10.38;;;4.07;;
50319;SDS011;36226;53.464;9.852;2023-05-10T04:19:35;5.03;;;3.45;;
50319;SDS011;36226;53.464;9.852;2023-05-10T04:22:01;7.20;;;3.03;;
50319;SDS011;36226;53.464;9.852;2023-05-10T04:24:27;4.43;;;2.95;;
50319;SDS011;36226;53.464;9.852;2023-05-10T04:26:53;5.85;;;3.42;;
50319;SDS011;36226;53.464;9.852;2023-05-10T04:29:19;6.30;;;3.30;;
50319;SDS011;36226;53.464;9.852;2023-05-10T04:31:44;7.03;;;3.42;;
50319;SDS011;36226;53.464;9.852;2023-05-10T04:34:10;4.72;;;3.13;;
50319;SDS011;36226;53.464;9.852;2023-05-10T04:36:35;5.32;;;3.63;;
50319;SDS011;36226;53.464;9.852;2023-05-10T04:39:02;6.03;;;2.95;;
50319;SDS011;36226;53.464;9.852;2023-05-10T04:41:28;5.65;;;2.95;;
50319;SDS011;36226;53.464;9.852;2023-05-10T04:43:53;4.82;;;3.30;;
50319;SDS011;36226;53.464;9.852;2023-05-10T04:46:18;5.18;;;3.17;;
50319;SDS011;36226;53.464;9.852;2023-05-10T04:48:44;4.80;;;3.17;;
50319;SDS011;36226;53.464;9.852;2023-05-10T04:51:12;5.38;;;3.35;;
50319;SDS011;36226;53.464;9.852;2023-05-10T04:53:38;4.75;;;3.47;;
50319;SDS011;36226;53.464;9.852;2023-05-10T04:56:03;5.18;;;3.38;;
50319;SDS011;36226;53.464;9.852;2023-05-10T04:58:29;5.22;;;3.55;;
50319;SDS011;36226;53.464;9.852;2023-05-10T05:00:54;4.97;;;3.42;;
50319;SDS011;36226;53.464;9.852;2023-05-10T05:03:20;7.00;;;3.40;;
50319;SDS011;36226;53.464;9.852;2023-05-10T05:05:48;10.70;;;4.55;;
50319;SDS011;36226;53.464;9.852;2023-05-10T05:08:13;7.50;;;2.95;;
50319;SDS011;36226;53.464;9.852;2023-05-10T05:10:39;5.03;;;3.28;;
50319;SDS011;36226;53.464;9.852;2023-05-10T05:13:04;10.25;;;3.60;;
50319;SDS011;36226;53.464;9.852;2023-05-10T05:15:30;4.68;;;3.50;;
50319;SDS011;36226;53.464;9.852;2023-05-10T05:17:55;5.40;;;3.42;;
50319;SDS011;36226;53.464;9.852;2023-05-10T05:20:21;5.97;;;3.67;;
50319;SDS011;36226;53.464;9.852;2023-05-10T05:22:46;7.50;;;3.92;;
50319;SDS011;36226;53.464;9.852;2023-05-10T05:25:11;4.70;;;3.13;;
50319;SDS011;36226;53.464;9.852;2023-05-10T05:27:37;5.53;;;3.38;;
50319;SDS011;36226;53.464;9.852;2023-05-10T05:30:03;7.57;;;3.38;;
50319;SDS011;36226;53.464;9.852;2023-05-10T05:32:29;8.32;;;3.40;;
50319;SDS011;36226;53.464;9.852;2023-05-10T05:34:55;6.60;;;3.92;;
50319;SDS011;36226;53.464;9.852;2023-05-10T05:37:20;5.95;;;3.40;;
50319;SDS011;36226;53.464;9.852;2023-05-10T05:39:46;6.45;;;3.20;;
50319;SDS011;36226;53.464;9.852;2023-05-10T05:42:12;5.28;;;3.78;;
50319;SDS011;36226;53.464;9.852;2023-05-10T05:44:38;4.80;;;3.30;;
50319;SDS011;36226;53.464;9.852;2023-05-10T05:47:04;4.65;;;3.42;;
50319;SDS011;36226;53.464;9.852;2023-05-10T05:49:30;7.10;;;3.35;;
50319;SDS011;36226;53.464;9.852;2023-05-10T05:51:59;5.20;;;3.42;;
50319;SDS011;36226;53.464;9.852;2023-05-10T05:54:28;5.18;;;3.40;;
50319;SDS011;36226;53.464;9.852;2023-05-10T05:56:54;4.35;;;3.13;;
50319;SDS011;36226;53.464;9.852;2023-05-10T05:59:20;5.25;;;3.40;;
50319;SDS011;36226;53.464;9.852;2023-05-10T06:01:46;8.30;;;3.17;;
50319;SDS011;36226;53.464;9.852;2023-05-10T06:04:11;5.32;;;3.35;;
50319;SDS011;36226;53.464;9.852;2023-05-10T06:06:39;7.13;;;3.60;;
50319;SDS011;36226;53.464;9.852;2023-05-10T06:09:05;5.63;;;3.55;;
50319;SDS011;36226;53.464;9.852;2023-05-10T06:11:30;8.77;;;3.92;;
50319;SDS011;36226;53.464;9.852;2023-05-10T06:13:57;5.80;;;3.45;;
50319;SDS011;36226;53.464;9.852;2023-05-10T06:16:23;5.88;;;3.55;;
50319;SDS011;36226;53.464;9.852;2023-05-10T06:18:48;5.70;;;3.60;;
50319;SDS011;36226;53.464;9.852;2023-05-10T06:21:13;5.35;;;3.33;;
50319;SDS011;36226;53.464;9.852;2023-05-10T06:23:39;5.15;;;3.30;;
50319;SDS011;36226;53.464;9.852;2023-05-10T06:26:05;3.92;;;3.25;;
50319;SDS011;36226;53.464;9.852;2023-05-10T06:28:30;8.13;;;3.50;;
50319;SDS011;36226;53.464;9.852;2023-05-10T06:30:57;7.53;;;3.60;;
50319;SDS011;36226;53.464;9.852;2023-05-10T06:33:22;7.07;;;3.58;;
50319;SDS011;36226;53.464;9.852;2023-05-10T06:35:47;5.95;;;3.50;;
50319;SDS011;36226;53.464;9.852;2023-05-10T06:38:13;6.07;;;3.38;;
50319;SDS011;36226;53.464;9.852;2023-05-10T06:40:41;4.78;;;3.63;;
50319;SDS011;36226;53.464;9.852;2023-05-10T06:43:07;7.38;;;3.40;;
50319;SDS011;36226;53.464;9.852;2023-05-10T06:45:32;4.55;;;3.10;;
50319;SDS011;36226;53.464;9.852;2023-05-10T06:47:57;5.97;;;3.60;;
50319;SDS011;36226;53.464;9.852;2023-05-10T06:50:23;4.57;;;3.35;;
50319;SDS011;36226;53.464;9.852;2023-05-10T06:52:48;5.60;;;3.55;;
50319;SDS011;36226;53.464;9.852;2023-05-10T06:55:13;8.20;;;3.88;;
50319;SDS011;36226;53.464;9.852;2023-05-10T06:57:39;7.00;;;3.33;;
50319;SDS011;36226;53.464;9.852;2023-05-10T07:00:04;5.38;;;3.20;;
50319;SDS011;36226;53.464;9.852;2023-05-10T07:02:30;4.40;;;3.22;;
50319;SDS011;36226;53.464;9.852;2023-05-10T07:04:56;5.20;;;3.38;;
50319;SDS011;36226;53.464;9.852;2023-05-10T07:07:22;5.43;;;3.13;;
50319;SDS011;36226;53.464;9.852;2023-05-10T07:09:47;6.78;;;4.10;;
50319;SDS011;36226;53.464;9.852;2023-05-10T07:12:14;5.25;;;3.60;;
50319;SDS011;36226;53.464;9.852;2023-05-10T07:14:40;7.63;;;3.33;;
50319;SDS011;36226;53.464;9.852;2023-05-10T07:17:05;9.13;;;3.60;;
50319;SDS011;36226;53.464;9.852;2023-05-10T07:19:31;6.55;;;3.80;;
50319;SDS011;36226;53.464;9.852;2023-05-10T07:21:57;4.65;;;3.33;;
50319;SDS011;36226;53.464;9.852;2023-05-10T07:24:23;5.90;;;3.35;;
50319;SDS011;36226;53.464;9.852;2023-05-10T07:26:49;5.50;;;3.50;;
50319;SDS011;36226;53.464;9.852;2023-05-10T07:29:17;7.85;;;3.55;;
50319;SDS011;36226;53.464;9.852;2023-05-10T07:31:42;4.25;;;3.60;;
50319;SDS011;36226;53.464;9.852;2023-05-10T07:34:08;4.43;;;3.20;;
50319;SDS011;36226;53.464;9.852;2023-05-10T07:36:33;6.40;;;3.55;;
50319;SDS011;36226;53.464;9.852;2023-05-10T07:38:59;7.97;;;3.47;;
50319;SDS011;36226;53.464;9.852;2023-05-10T07:41:24;3.88;;;3.20;;
50319;SDS011;36226;53.464;9.852;2023-05-10T07:43:50;6.70;;;3.53;;
50319;SDS011;36226;53.464;9.852;2023-05-10T07:46:15;3.90;;;3.33;;
50319;SDS011;36226;53.464;9.852;2023-05-10T07:48:41;4.55;;;3.13;;
50319;SDS011;36226;53.464;9.852;2023-05-10T07:51:06;7.00;;;3.55;;
50319;SDS011;36226;53.464;9.852;2023-05-10T07:53:34;5.53;;;3.60;;
50319;SDS011;36226;53.464;9.852;2023-05-10T07:56:19;8.45;;;3.22;;
50319;SDS011;36226;53.464;9.852;2023-05-10T07:59:00;4.18;;;3.42;;
50319;SDS011;36226;53.464;9.852;2023-05-10T08:01:30;5.93;;;3.70;;
50319;SDS011;36226;53.464;9.852;2023-05-10T08:03:58;5.50;;;3.35;;
50319;SDS011;36226;53.464;9.852;2023-05-10T08:06:23;4.68;;;3.35;;
50319;SDS011;36226;53.464;9.852;2023-05-10T08:08:49;5.15;;;3.60;;
50319;SDS011;36226;53.464;9.852;2023-05-10T08:11:18;6.15;;;3.70;;
50319;SDS011;36226;53.464;9.852;2023-05-10T08:13:44;4.82;;;3.45;;
50319;SDS011;36226;53.464;9.852;2023-05-10T08:16:10;6.25;;;4.03;;
50319;SDS011;36226;53.464;9.852;2023-05-10T08:18:35;5.20;;;4.10;;
50319;SDS011;36226;53.464;9.852;2023-05-10T08:21:00;4.47;;;3.53;;
50319;SDS011;36226;53.464;9.852;2023-05-10T08:23:28;4.63;;;3.83;;
50319;SDS011;36226;53.464;9.852;2023-05-10T08:25:57;5.72;;;4.00;;
50319;SDS011;36226;53.464;9.852;2023-05-10T08:28:22;5.15;;;3.63;;
50319;SDS011;36226;53.464;9.852;2023-05-10T08:30:49;6.65;;;3.83;;
50319;SDS011;36226;53.464;9.852;2023-05-10T08:33:14;7.40;;;4.25;;
50319;SDS011;36226;53.464;9.852;2023-05-10T08:35:40;6.22;;;4.20;;
50319;SDS011;36226;53.464;9.852;2023-05-10T08:38:06;8.68;;;4.55;;
50319;SDS011;36226;53.464;9.852;2023-05-10T08:40:31;5.43;;;4.10;;
50319;SDS011;36226;53.464;9.852;2023-05-10T08:43:04;7.93;;;3.75;;
50319;SDS011;36226;53.464;9.852;2023-05-10T08:45:36;7.53;;;4.05;;
50319;SDS011;36226;53.464;9.852;2023-05-10T08:48:04;6.57;;;4.03;;
50319;SDS011;36226;53.464;9.852;2023-05-10T08:50:30;6.03;;;4.50;;
50319;SDS011;36226;53.464;9.852;2023-05-10T08:52:57;8.95;;;4.47;;
50319;SDS011;36226;53.464;9.852;2023-05-10T08:55:25;6.75;;;3.95;;
50319;SDS011;36226;53.464;9.852;2023-05-10T08:57:51;5.97;;;4.40;;
50319;SDS011;36226;53.464;9.852;2023-05-10T09:00:16;6.28;;;4.50;;
50319;SDS011;36226;53.464;9.852;2023-05-10T09:02:43;7.55;;;4.28;;
50319;SDS011;36226;53.464;9.852;2023-05-10T09:05:10;5.80;;;4.20;;
50319;SDS011;36226;53.464;9.852;2023-05-10T09:07:36;5.88;;;4.30;;
50319;SDS011;36226;53.464;9.852;2023-05-10T09:10:01;5.15;;;3.90;;
50319;SDS011;36226;53.464;9.852;2023-05-10T09:12:27;5.57;;;4.07;;
50319;SDS011;36226;53.464;9.852;2023-05-10T09:14:52;7.38;;;4.50;;
50319;SDS011;36226;53.464;9.852;2023-05-10T09:17:19;6.72;;;4.65;;
50319;SDS011;36226;53.464;9.852;2023-05-10T09:19:45;9.25;;;5.03;;
50319;SDS011;36226;53.464;9.852;2023-05-10T09:22:10;9.43;;;5.20;;
50319;SDS011;36226;53.464;9.852;2023-05-10T09:24:35;9.13;;;4.68;;
50319;SDS011;36226;53.464;9.852;2023-05-10T09:27:07;10.98;;;4.65;;
50319;SDS011;36226;53.464;9.852;2023-05-10T09:29:41;6.40;;;4.78;;
50319;SDS011;36226;53.464;9.852;2023-05-10T09:32:07;9.18;;;5.15;;
50319;SDS011;36226;53.464;9.852;2023-05-10T09:34:33;8.63;;;4.95;;
50319;SDS011;36226;53.464;9.852;2023-05-10T09:37:00;6.63;;;4.90;;
50319;SDS011;36226;53.464;9.852;2023-05-10T09:39:37;6.93;;;4.53;;
50319;SDS011;36226;53.464;9.852;2023-05-10T09:42:06;8.40;;;4.60;;
50319;SDS011;36226;53.464;9.852;2023-05-10T09:44:33;8.13;;;5.57;;
50319;SDS011;36226;53.464;9.852;2023-05-10T09:46:59;8.20;;;5.60;;
50319;SDS011;36226;53.464;9.852;2023-05-10T09:49:25;7.32;;;5.20;;
50319;SDS011;36226;53.464;9.852;2023-05-10T09:52:03;8.10;;;5.18;;
50319;SDS011;36226;53.464;9.852;2023-05-10T09:54:30;7.28;;;5.45;;
50319;SDS011;36226;53.464;9.852;2023-05-10T09:56:56;9.23;;;6.00;;
50319;SDS011;36226;53.464;9.852;2023-05-10T09:59:21;6.40;;;5.28;;
50319;SDS011;36226;53.464;9.852;2023-05-10T10:01:50;10.10;;;5.75;;
50319;SDS011;36226;53.464;9.852;2023-05-10T10:04:16;10.55;;;6.05;;
50319;SDS011;36226;53.464;9.852;2023-05-10T10:06:42;8.00;;;6.30;;
50319;SDS011;36226;53.464;9.852;2023-05-10T10:09:07;12.45;;;6.22;;
50319;SDS011;36226;53.464;9.852;2023-05-10T10:11:36;9.82;;;6.63;;
50319;SDS011;36226;53.464;9.852;2023-05-10T10:14:03;8.20;;;5.70;;
50319;SDS011;36226;53.464;9.852;2023-05-10T10:16:29;9.40;;;6.07;;
50319;SDS011;36226;53.464;9.852;2023-05-10T10:18:55;10.43;;;6.47;;
50319;SDS011;36226;53.464;9.852;2023-05-10T10:21:21;9.48;;;6.90;;
50319;SDS011;36226;53.464;9.852;2023-05-10T10:23:47;10.18;;;6.28;;
50319;SDS011;36226;53.464;9.852;2023-05-10T10:26:12;10.18;;;6.40;;
50319;SDS011;36226;53.464;9.852;2023-05-10T10:28:55;13.05;;;7.10;;
50319;SDS011;36226;53.464;9.852;2023-05-10T10:31:36;9.90;;;7.18;;
50319;SDS011;36226;53.464;9.852;2023-05-10T10:34:07;9.50;;;6.95;;
50319;SDS011;36226;53.464;9.852;2023-05-10T10:36:40;10.57;;;6.65;;
50319;SDS011;36226;53.464;9.852;2023-05-10T10:39:09;12.23;;;6.82;;
50319;SDS011;36226;53.464;9.852;2023-05-10T10:41:35;9.23;;;6.68;;
50319;SDS011;36226;53.464;9.852;2023-05-10T10:49:28;9.57;;;7.03;;
50319;SDS011;36226;53.464;9.852;2023-05-10T10:54:41;8.23;;;6.80;;
50319;SDS011;36226;53.464;9.852;2023-05-10T10:57:10;9.80;;;7.00;;
50319;SDS011;36226;53.464;9.852;2023-05-10T10:59:41;9.70;;;7.32;;
50319;SDS011;36226;53.464;9.852;2023-05-10T11:02:10;10.30;;;6.57;;
50319;SDS011;36226;53.464;9.852;2023-05-10T11:04:42;8.60;;;6.80;;
50319;SDS011;36226;53.464;9.852;2023-05-10T11:07:18;10.15;;;6.72;;
50319;SDS011;36226;53.464;9.852;2023-05-10T11:09:45;9.38;;;7.05;;
50319;SDS011;36226;53.464;9.852;2023-05-10T11:12:12;9.57;;;7.15;;
50319;SDS011;36226;53.464;9.852;2023-05-10T11:14:37;8.85;;;6.80;;
50319;SDS011;36226;53.464;9.852;2023-05-10T11:17:21;7.93;;;6.38;;
50319;SDS011;36226;53.464;9.852;2023-05-10T11:20:06;8.40;;;6.70;;
50319;SDS011;36226;53.464;9.852;2023-05-10T11:22:48;11.68;;;7.35;;
50319;SDS011;36226;53.464;9.852;2023-05-10T11:25:20;9.85;;;7.35;;
50319;SDS011;36226;53.464;9.852;2023-05-10T11:27:51;10.15;;;7.00;;
50319;SDS011;36226;53.464;9.852;2023-05-10T11:30:16;9.98;;;7.15;;
50319;SDS011;36226;53.464;9.852;2023-05-10T11:32:42;9.63;;;7.03;;
50319;SDS011;36226;53.464;9.852;2023-05-10T11:35:08;8.50;;;6.53;;
50319;SDS011;36226;53.464;9.852;2023-05-10T11:37:34;8.30;;;6.85;;
50319;SDS011;36226;53.464;9.852;2023-05-10T11:39:59;9.20;;;6.80;;
50319;SDS011;36226;53.464;9.852;2023-05-10T11:42:25;10.93;;;7.38;;
50319;SDS011;36226;53.464;9.852;2023-05-10T11:44:52;8.85;;;6.30;;
50319;SDS011;36226;53.464;9.852;2023-05-10T11:47:17;8.77;;;6.40;;
50319;SDS011;36226;53.464;9.852;2023-05-10T11:49:46;9.13;;;6.43;;
50319;SDS011;36226;53.464;9.852;2023-05-10T11:52:12;8.90;;;6.50;;
50319;SDS011;36226;53.464;9.852;2023-05-10T11:54:37;10.90;;;6.63;;
50319;SDS011;36226;53.464;9.852;2023-05-10T11:57:07;9.75;;;6.90;;
50319;SDS011;36226;53.464;9.852;2023-05-10T11:59:33;8.63;;;5.72;;
50319;SDS011;36226;53.464;9.852;2023-05-10T12:01:58;8.02;;;5.88;;
50319;SDS011;36226;53.464;9.852;2023-05-10T12:04:23;7.82;;;6.13;;
50319;SDS011;36226;53.464;9.852;2023-05-10T12:06:49;7.43;;;6.03;;
50319;SDS011;36226;53.464;9.852;2023-05-10T12:09:15;7.03;;;6.00;;
50319;SDS011;36226;53.464;9.852;2023-05-10T12:11:40;7.53;;;5.80;;
50319;SDS011;36226;53.464;9.852;2023-05-10T12:14:06;7.20;;;5.55;;
50319;SDS011;36226;53.464;9.852;2023-05-10T12:16:32;6.78;;;5.60;;
50319;SDS011;36226;53.464;9.852;2023-05-10T12:18:59;8.18;;;5.93;;
50319;SDS011;36226;53.464;9.852;2023-05-10T12:21:25;6.50;;;5.55;;
50319;SDS011;36226;53.464;9.852;2023-05-10T12:23:53;8.57;;;5.72;;
50319;SDS011;36226;53.464;9.852;2023-05-10T12:26:27;8.73;;;6.70;;
50319;SDS011;36226;53.464;9.852;2023-05-10T12:28:53;8.07;;;6.25;;
50319;SDS011;36226;53.464;9.852;2023-05-10T12:31:19;8.32;;;6.57;;
50319;SDS011;36226;53.464;9.852;2023-05-10T12:33:44;9.93;;;6.50;;
50319;SDS011;36226;53.464;9.852;2023-05-10T12:36:12;10.82;;;8.00;;
50319;SDS011;36226;53.464;9.852;2023-05-10T12:38:39;9.43;;;7.43;;
50319;SDS011;36226;53.464;9.852;2023-05-10T12:41:26;9.25;;;6.97;;
50319;SDS011;36226;53.464;9.852;2023-05-10T12:43:51;8.27;;;6.47;;
50319;SDS011;36226;53.464;9.852;2023-05-10T12:46:17;8.10;;;6.70;;
50319;SDS011;36226;53.464;9.852;2023-05-10T12:48:44;8.93;;;7.22;;
50319;SDS011;36226;53.464;9.852;2023-05-10T12:51:11;9.98;;;6.65;;
50319;SDS011;36226;53.464;9.852;2023-05-10T12:53:41;7.60;;;6.60;;
50319;SDS011;36226;53.464;9.852;2023-05-10T12:56:06;9.95;;;7.43;;
50319;SDS011;36226;53.464;9.852;2023-05-10T12:58:32;9.88;;;7.53;;
50319;SDS011;36226;53.464;9.852;2023-05-10T13:00:57;8.27;;;6.68;;
50319;SDS011;36226;53.464;9.852;2023-05-10T13:03:23;7.50;;;6.57;;
50319;SDS011;36226;53.464;9.852;2023-05-10T13:05:49;8.68;;;7.03;;
50319;SDS011;36226;53.464;9.852;2023-05-10T13:08:14;8.15;;;6.90;;
50319;SDS011;36226;53.464;9.852;2023-05-10T13:10:40;9.05;;;7.00;;
50319;SDS011;36226;53.464;9.852;2023-05-10T13:13:05;10.55;;;7.03;;
50319;SDS011;36226;53.464;9.852;2023-05-10T13:15:31;8.48;;;6.72;;
50319;SDS011;36226;53.464;9.852;2023-05-10T13:17:56;7.22;;;6.03;;
50319;SDS011;36226;53.464;9.852;2023-05-10T13:20:22;8.07;;;6.65;;
50319;SDS011;36226;53.464;9.852;2023-05-10T13:22:47;7.15;;;6.00;;
50319;SDS011;36226;53.464;9.852;2023-05-10T13:25:13;8.38;;;7.18;;
50319;SDS011;36226;53.464;9.852;2023-05-10T13:27:41;9.90;;;6.47;;
50319;SDS011;36226;53.464;9.852;2023-05-10T13:30:07;7.82;;;6.38;;
50319;SDS011;36226;53.464;9.852;2023-05-10T13:32:33;8.52;;;6.25;;
50319;SDS011;36226;53.464;9.852;2023-05-10T13:34:59;10.38;;;6.82;;
50319;SDS011;36226;53.464;9.852;2023-05-10T13:37:24;8.70;;;6.63;;
50319;SDS011;36226;53.464;9.852;2023-05-10T13:39:50;6.68;;;5.90;;
50319;SDS011;36226;53.464;9.852;2023-05-10T13:42:15;8.35;;;6.72;;
50319;SDS011;36226;53.464;9.852;2023-05-10T13:44:40;7.20;;;6.28;;
50319;SDS011;36226;53.464;9.852;2023-05-10T13:47:06;6.93;;;6.10;;
50319;SDS011;36226;53.464;9.852;2023-05-10T13:49:31;6.80;;;5.57;;
50319;SDS011;36226;53.464;9.852;2023-05-10T13:51:58;6.70;;;5.75;;
50319;SDS011;36226;53.464;9.852;2023-05-10T13:54:24;6.70;;;5.55;;
50319;SDS011;36226;53.464;9.852;2023-05-10T13:56:50;7.22;;;6.00;;
50319;SDS011;36226;53.464;9.852;2023-05-10T13:59:15;9.30;;;6.10;;
50319;SDS011;36226;53.464;9.852;2023-05-10T14:01:41;6.70;;;5.28;;
50319;SDS011;36226;53.464;9.852;2023-05-10T14:04:07;6.70;;;5.70;;
50319;SDS011;36226;53.464;9.852;2023-05-10T14:06:35;6.43;;;5.55;;
50319;SDS011;36226;53.464;9.852;2023-05-10T14:09:03;7.18;;;5.35;;
50319;SDS011;36226;53.464;9.852;2023-05-10T14:11:28;6.88;;;5.70;;
50319;SDS011;36226;53.464;9.852;2023-05-10T14:13:54;6.22;;;5.55;;
50319;SDS011;36226;53.464;9.852;2023-05-10T14:16:20;5.68;;;4.53;;
50319;SDS011;36226;53.464;9.852;2023-05-10T14:18:48;6.75;;;5.10;;
50319;SDS011;36226;53.464;9.852;2023-05-10T14:21:13;6.05;;;5.45;;
50319;SDS011;36226;53.464;9.852;2023-05-10T14:23:39;6.35;;;5.47;;
50319;SDS011;36226;53.464;9.852;2023-05-10T14:26:04;5.97;;;5.18;;
50319;SDS011;36226;53.464;9.852;2023-05-10T14:28:30;6.70;;;4.68;;
50319;SDS011;36226;53.464;9.852;2023-05-10T14:30:55;6.45;;;4.82;;
50319;SDS011;36226;53.464;9.852;2023-05-10T14:33:20;6.07;;;4.43;;
50319;SDS011;36226;53.464;9.852;2023-05-10T14:35:46;7.20;;;4.57;;
50319;SDS011;36226;53.464;9.852;2023-05-10T14:38:12;5.20;;;4.38;;
50319;SDS011;36226;53.464;9.852;2023-05-10T14:40:38;5.10;;;4.53;;
50319;SDS011;36226;53.464;9.852;2023-05-10T14:43:03;5.18;;;4.13;;
50319;SDS011;36226;53.464;9.852;2023-05-10T14:45:29;4.82;;;4.05;;
50319;SDS011;36226;53.464;9.852;2023-05-10T14:47:54;4.97;;;3.90;;
50319;SDS011;36226;53.464;9.852;2023-05-10T14:50:19;3.80;;;3.45;;
50319;SDS011;36226;53.464;9.852;2023-05-10T14:52:45;4.15;;;3.40;;
50319;SDS011;36226;53.464;9.852;2023-05-10T14:55:11;4.20;;;3.80;;
50319;SDS011;36226;53.464;9.852;2023-05-10T14:57:36;5.07;;;3.63;;
50319;SDS011;36226;53.464;9.852;2023-05-10T15:00:02;4.32;;;3.70;;
50319;SDS011;36226;53.464;9.852;2023-05-10T15:02:28;4.35;;;3.60;;
50319;SDS011;36226;53.464;9.852;2023-05-10T15:04:54;3.63;;;3.17;;
50319;SDS011;36226;53.464;9.852;2023-05-10T15:07:19;3.88;;;3.30;;
50319;SDS011;36226;53.464;9.852;2023-05-10T15:09:45;3.50;;;3.15;;
50319;SDS011;36226;53.464;9.852;2023-05-10T15:12:10;4.00;;;3.50;;